sensor_id;sensor_type;location;lat;lon;timestamp;pressure;altitude;pressure_sealevel;temperature;humidity
58662;BME280;44432;49.786;22.760;2022-07-18T00:02:01;100198.30;;;11.96;72.33
58662;BME280;44432;49.786;22.760;2022-07-18T00:04:32;100201.68;;;11.96;72.47
58662;BME280;44432;49.786;22.760;2022-07-18T00:07:03;100201.27;;;11.95;72.64
58662;BME280;44432;49.786;22.760;2022-07-18T00:09:34;100203.02;;;11.93;72.59
58662;BME280;44432;49.786;22.760;2022-07-18T00:12:05;100194.86;;;11.81;72.51
58662;BME280;44432;49.786;22.760;2022-07-18T00:14:36;100207.20;;;11.79;72.81
58662;BME280;44432;49.786;22.760;2022-07-18T00:17:08;100207.80;;;11.74;72.86
58662;BME280;44432;49.786;22.760;2022-07-18T00:19:39;100207.54;;;11.72;72.78
58662;BME280;44432;49.786;22.760;2022-07-18T00:22:09;100207.20;;;11.71;72.96
58662;BME280;44432;49.786;22.760;2022-07-18T00:24:40;100203.13;;;11.70;72.93
58662;BME280;44432;49.786;22.760;2022-07-18T00:27:11;100202.84;;;11.69;72.99
58662;BME280;44432;49.786;22.760;2022-07-18T00:29:41;100199.14;;;11.68;73.06
58662;BME280;44432;49.786;22.760;2022-07-18T00:32:12;100200.22;;;11.65;73.03
58662;BME280;44432;49.786;22.760;2022-07-18T00:34:42;100200.08;;;11.61;72.85
58662;BME280;44432;49.786;22.760;2022-07-18T00:37:13;100203.60;;;11.55;73.00
58662;BME280;44432;49.786;22.760;2022-07-18T00:39:43;100205.85;;;11.51;72.96
58662;BME280;44432;49.786;22.760;2022-07-18T00:42:14;100210.77;;;11.52;73.27
58662;BME280;44432;49.786;22.760;2022-07-18T00:44:45;100210.98;;;11.54;73.42
58662;BME280;44432;49.786;22.760;2022-07-18T00:47:15;100211.05;;;11.56;73.43
58662;BME280;44432;49.786;22.760;2022-07-18T00:49:46;100212.11;;;11.59;73.42
58662;BME280;44432;49.786;22.760;2022-07-18T00:52:16;100214.68;;;11.58;73.47
58662;BME280;44432;49.786;22.760;2022-07-18T00:54:47;100218.20;;;11.57;73.26
58662;BME280;44432;49.786;22.760;2022-07-18T00:57:18;100216.92;;;11.53;73.42
58662;BME280;44432;49.786;22.760;2022-07-18T00:59:49;100218.79;;;11.51;73.31
58662;BME280;44432;49.786;22.760;2022-07-18T01:02:37;100216.02;;;11.49;73.37
58662;BME280;44432;49.786;22.760;2022-07-18T01:05:09;100221.65;;;11.47;73.33
58662;BME280;44432;49.786;22.760;2022-07-18T01:07:40;100223.08;;;11.43;73.09
58662;BME280;44432;49.786;22.760;2022-07-18T01:10:11;100220.02;;;11.40;72.97
58662;BME280;44432;49.786;22.760;2022-07-18T01:12:42;100218.20;;;11.36;73.31
58662;BME280;44432;49.786;22.760;2022-07-18T01:15:13;100221.37;;;11.33;73.51
58662;BME280;44432;49.786;22.760;2022-07-18T01:17:44;100219.58;;;11.28;73.38
58662;BME280;44432;49.786;22.760;2022-07-18T01:20:14;100220.03;;;11.23;73.46
58662;BME280;44432;49.786;22.760;2022-07-18T01:22:45;100219.89;;;11.20;73.32
58662;BME280;44432;49.786;22.760;2022-07-18T01:25:15;100218.11;;;11.16;73.43
58662;BME280;44432;49.786;22.760;2022-07-18T01:27:46;100221.06;;;11.12;73.60
58662;BME280;44432;49.786;22.760;2022-07-18T01:30:17;100219.77;;;11.08;73.56
58662;BME280;44432;49.786;22.760;2022-07-18T01:32:48;100218.13;;;11.06;73.79
58662;BME280;44432;49.786;22.760;2022-07-18T01:35:24;100216.77;;;11.04;73.87
58662;BME280;44432;49.786;22.760;2022-07-18T01:37:57;100213.95;;;11.03;73.85
58662;BME280;44432;49.786;22.760;2022-07-18T01:40:28;100212.72;;;11.00;73.88
58662;BME280;44432;49.786;22.760;2022-07-18T01:42:59;100212.66;;;10.97;74.05
58662;BME280;44432;49.786;22.760;2022-07-18T01:45:29;100216.73;;;10.93;74.08
58662;BME280;44432;49.786;22.760;2022-07-18T01:48:00;100213.02;;;10.87;73.88
58662;BME280;44432;49.786;22.760;2022-07-18T01:50:31;100214.58;;;10.84;74.00
58662;BME280;44432;49.786;22.760;2022-07-18T01:53:01;100214.94;;;10.83;74.15
58662;BME280;44432;49.786;22.760;2022-07-18T01:55:32;100213.79;;;10.82;74.23
58662;BME280;44432;49.786;22.760;2022-07-18T01:58:02;100210.77;;;10.79;74.28
58662;BME280;44432;49.786;22.760;2022-07-18T02:00:34;100207.60;;;10.79;74.30
58662;BME280;44432;49.786;22.760;2022-07-18T02:03:04;100212.59;;;10.79;74.45
58662;BME280;44432;49.786;22.760;2022-07-18T02:05:35;100218.78;;;10.75;74.30
58662;BME280;44432;49.786;22.760;2022-07-18T02:08:05;100216.67;;;10.71;74.53
58662;BME280;44432;49.786;22.760;2022-07-18T02:10:36;100217.98;;;10.68;74.60
58662;BME280;44432;49.786;22.760;2022-07-18T02:13:07;100220.96;;;10.65;74.56
58662;BME280;44432;49.786;22.760;2022-07-18T02:15:38;100214.88;;;10.61;74.50
58662;BME280;44432;49.786;22.760;2022-07-18T02:18:08;100218.89;;;10.61;74.73
58662;BME280;44432;49.786;22.760;2022-07-18T02:20:39;100216.30;;;10.61;74.71
58662;BME280;44432;49.786;22.760;2022-07-18T02:23:10;100209.59;;;10.61;74.87
58662;BME280;44432;49.786;22.760;2022-07-18T02:25:40;100212.96;;;10.62;74.93
58662;BME280;44432;49.786;22.760;2022-07-18T02:28:11;100213.21;;;10.61;74.94
58662;BME280;44432;49.786;22.760;2022-07-18T02:30:42;100216.52;;;10.59;74.95
58662;BME280;44432;49.786;22.760;2022-07-18T02:33:12;100212.68;;;10.57;74.93
58662;BME280;44432;49.786;22.760;2022-07-18T02:35:43;100213.73;;;10.53;74.87
58662;BME280;44432;49.786;22.760;2022-07-18T02:38:14;100217.77;;;10.53;75.09
58662;BME280;44432;49.786;22.760;2022-07-18T02:40:44;100218.81;;;10.52;75.00
58662;BME280;44432;49.786;22.760;2022-07-18T02:43:15;100222.38;;;10.51;74.99
58662;BME280;44432;49.786;22.760;2022-07-18T02:45:46;100217.73;;;10.49;74.96
58662;BME280;44432;49.786;22.760;2022-07-18T02:48:16;100220.04;;;10.49;75.04
58662;BME280;44432;49.786;22.760;2022-07-18T02:50:47;100223.34;;;10.49;75.05
58662;BME280;44432;49.786;22.760;2022-07-18T02:53:17;100218.82;;;10.48;75.06
58662;BME280;44432;49.786;22.760;2022-07-18T02:55:51;100223.12;;;10.48;75.12
58662;BME280;44432;49.786;22.760;2022-07-18T02:58:22;100221.27;;;10.46;75.02
58662;BME280;44432;49.786;22.760;2022-07-18T03:00:52;100223.95;;;10.45;75.18
58662;BME280;44432;49.786;22.760;2022-07-18T03:03:23;100222.55;;;10.44;75.04
58662;BME280;44432;49.786;22.760;2022-07-18T03:05:54;100220.95;;;10.42;75.13
58662;BME280;44432;49.786;22.760;2022-07-18T03:08:24;100223.45;;;10.44;75.16
58662;BME280;44432;49.786;22.760;2022-07-18T03:10:55;100222.58;;;10.45;75.14
58662;BME280;44432;49.786;22.760;2022-07-18T03:13:25;100217.67;;;10.48;75.10
58662;BME280;44432;49.786;22.760;2022-07-18T03:15:56;100220.98;;;10.49;75.07
58662;BME280;44432;49.786;22.760;2022-07-18T03:18:26;100217.41;;;10.50;75.02
58662;BME280;44432;49.786;22.760;2022-07-18T03:20:57;100218.72;;;10.51;75.17
58662;BME280;44432;49.786;22.760;2022-07-18T03:23:28;100221.77;;;10.55;75.31
58662;BME280;44432;49.786;22.760;2022-07-18T03:25:58;100221.31;;;10.58;75.27
58662;BME280;44432;49.786;22.760;2022-07-18T03:28:29;100218.52;;;10.64;75.09
58662;BME280;44432;49.786;22.760;2022-07-18T03:30:59;100223.84;;;10.69;75.07
58662;BME280;44432;49.786;22.760;2022-07-18T03:33:30;100220.53;;;10.75;75.16
58662;BME280;44432;49.786;22.760;2022-07-18T03:36:01;100218.44;;;10.83;75.10
58662;BME280;44432;49.786;22.760;2022-07-18T03:38:31;100219.96;;;10.90;74.91
58662;BME280;44432;49.786;22.760;2022-07-18T03:41:02;100222.23;;;10.96;74.98
58662;BME280;44432;49.786;22.760;2022-07-18T03:43:32;100225.46;;;11.02;74.84
58662;BME280;44432;49.786;22.760;2022-07-18T03:46:03;100219.20;;;11.07;74.77
58662;BME280;44432;49.786;22.760;2022-07-18T03:48:34;100219.71;;;11.18;74.78
58662;BME280;44432;49.786;22.760;2022-07-18T03:51:05;100222.52;;;11.26;74.56
58662;BME280;44432;49.786;22.760;2022-07-18T03:53:36;100221.68;;;11.32;74.36
58662;BME280;44432;49.786;22.760;2022-07-18T03:56:07;100220.71;;;11.41;74.40
58662;BME280;44432;49.786;22.760;2022-07-18T03:58:38;100221.56;;;11.52;74.30
58662;BME280;44432;49.786;22.760;2022-07-18T04:01:08;100220.63;;;11.62;74.17
58662;BME280;44432;49.786;22.760;2022-07-18T04:03:39;100220.40;;;11.72;74.02
58662;BME280;44432;49.786;22.760;2022-07-18T04:06:10;100218.46;;;11.79;73.89
58662;BME280;44432;49.786;22.760;2022-07-18T04:08:41;100218.79;;;11.88;73.75
58662;BME280;44432;49.786;22.760;2022-07-18T04:11:11;100217.92;;;11.96;73.77
58662;BME280;44432;49.786;22.760;2022-07-18T04:13:42;100216.16;;;12.05;73.58
58662;BME280;44432;49.786;22.760;2022-07-18T04:16:12;100218.71;;;12.13;73.34
58662;BME280;44432;49.786;22.760;2022-07-18T04:18:43;100220.48;;;12.21;73.30
58662;BME280;44432;49.786;22.760;2022-07-18T04:21:14;100220.63;;;12.28;73.39
58662;BME280;44432;49.786;22.760;2022-07-18T04:23:45;100220.48;;;12.34;73.41
58662;BME280;44432;49.786;22.760;2022-07-18T04:26:15;100221.95;;;12.40;73.01
58662;BME280;44432;49.786;22.760;2022-07-18T04:28:46;100225.88;;;12.46;72.90
58662;BME280;44432;49.786;22.760;2022-07-18T04:31:17;100226.52;;;12.50;72.96
58662;BME280;44432;49.786;22.760;2022-07-18T04:33:48;100227.20;;;12.56;72.92
58662;BME280;44432;49.786;22.760;2022-07-18T04:36:18;100227.38;;;12.61;72.83
58662;BME280;44432;49.786;22.760;2022-07-18T04:38:49;100226.73;;;12.67;72.81
58662;BME280;44432;49.786;22.760;2022-07-18T04:41:19;100230.04;;;12.74;72.66
58662;BME280;44432;49.786;22.760;2022-07-18T04:43:53;100228.16;;;12.80;72.65
58662;BME280;44432;49.786;22.760;2022-07-18T04:46:24;100228.13;;;12.87;72.60
58662;BME280;44432;49.786;22.760;2022-07-18T04:48:55;100228.45;;;12.92;72.70
58662;BME280;44432;49.786;22.760;2022-07-18T04:51:25;100227.59;;;12.97;72.80
58662;BME280;44432;49.786;22.760;2022-07-18T04:53:56;100227.11;;;13.04;72.46
58662;BME280;44432;49.786;22.760;2022-07-18T04:56:26;100225.10;;;13.11;72.23
58662;BME280;44432;49.786;22.760;2022-07-18T04:58:57;100228.34;;;13.20;72.31
58662;BME280;44432;49.786;22.760;2022-07-18T05:01:28;100232.49;;;13.27;72.22
58662;BME280;44432;49.786;22.760;2022-07-18T05:03:58;100229.75;;;13.34;72.16
58662;BME280;44432;49.786;22.760;2022-07-18T05:06:29;100231.98;;;13.41;71.98
58662;BME280;44432;49.786;22.760;2022-07-18T05:09:00;100236.61;;;13.49;72.25
58662;BME280;44432;49.786;22.760;2022-07-18T05:11:30;100233.74;;;13.57;71.90
58662;BME280;44432;49.786;22.760;2022-07-18T05:14:01;100230.01;;;13.66;71.90
58662;BME280;44432;49.786;22.760;2022-07-18T05:16:31;100229.66;;;13.75;71.85
58662;BME280;44432;49.786;22.760;2022-07-18T05:19:02;100234.79;;;13.88;71.77
58662;BME280;44432;49.786;22.760;2022-07-18T05:21:32;100234.65;;;14.01;71.31
58662;BME280;44432;49.786;22.760;2022-07-18T05:24:04;100236.17;;;14.16;70.63
58662;BME280;44432;49.786;22.760;2022-07-18T05:26:34;100238.23;;;14.29;70.50
58662;BME280;44432;49.786;22.760;2022-07-18T05:29:05;100236.17;;;14.40;70.62
58662;BME280;44432;49.786;22.760;2022-07-18T05:31:35;100239.92;;;14.50;70.37
58662;BME280;44432;49.786;22.760;2022-07-18T05:34:06;100241.95;;;14.60;70.14
58662;BME280;44432;49.786;22.760;2022-07-18T05:36:37;100238.81;;;14.72;69.88
58662;BME280;44432;49.786;22.760;2022-07-18T05:39:07;100238.39;;;14.85;69.35
58662;BME280;44432;49.786;22.760;2022-07-18T05:41:39;100239.05;;;14.99;68.81
58662;BME280;44432;49.786;22.760;2022-07-18T05:44:09;100241.25;;;15.14;68.56
58662;BME280;44432;49.786;22.760;2022-07-18T05:46:40;100238.27;;;15.31;68.27
58662;BME280;44432;49.786;22.760;2022-07-18T05:49:11;100238.29;;;15.46;67.91
58662;BME280;44432;49.786;22.760;2022-07-18T05:51:41;100237.74;;;15.62;67.28
58662;BME280;44432;49.786;22.760;2022-07-18T05:54:12;100236.19;;;15.76;66.60
58662;BME280;44432;49.786;22.760;2022-07-18T05:56:49;100228.59;;;15.88;65.85
58662;BME280;44432;49.786;22.760;2022-07-18T05:59:20;100230.81;;;16.00;65.56
58662;BME280;44432;49.786;22.760;2022-07-18T06:01:51;100228.51;;;16.14;64.84
58662;BME280;44432;49.786;22.760;2022-07-18T06:04:22;100225.36;;;16.26;64.44
58662;BME280;44432;49.786;22.760;2022-07-18T06:06:52;100226.16;;;16.38;63.49
58662;BME280;44432;49.786;22.760;2022-07-18T06:09:23;100224.28;;;16.50;63.09
58662;BME280;44432;49.786;22.760;2022-07-18T06:11:53;100224.48;;;16.60;61.85
58662;BME280;44432;49.786;22.760;2022-07-18T06:14:24;100224.95;;;16.68;61.21
58662;BME280;44432;49.786;22.760;2022-07-18T06:16:55;100222.43;;;16.74;61.01
58662;BME280;44432;49.786;22.760;2022-07-18T06:19:25;100226.38;;;16.83;60.67
58662;BME280;44432;49.786;22.760;2022-07-18T06:21:56;100223.80;;;16.91;60.50
58662;BME280;44432;49.786;22.760;2022-07-18T06:24:27;100219.74;;;17.00;60.27
58662;BME280;44432;49.786;22.760;2022-07-18T06:26:57;100219.94;;;17.12;60.10
58662;BME280;44432;49.786;22.760;2022-07-18T06:29:28;100221.67;;;17.23;59.92
58662;BME280;44432;49.786;22.760;2022-07-18T06:31:58;100222.87;;;17.36;59.51
58662;BME280;44432;49.786;22.760;2022-07-18T06:34:29;100224.06;;;17.52;59.31
58662;BME280;44432;49.786;22.760;2022-07-18T06:37:00;100224.02;;;17.65;58.89
58662;BME280;44432;49.786;22.760;2022-07-18T06:39:30;100224.84;;;17.79;58.59
58662;BME280;44432;49.786;22.760;2022-07-18T06:42:01;100216.91;;;17.89;57.92
58662;BME280;44432;49.786;22.760;2022-07-18T06:44:31;100218.07;;;18.04;57.82
58662;BME280;44432;49.786;22.760;2022-07-18T06:47:02;100218.27;;;18.18;57.32
58662;BME280;44432;49.786;22.760;2022-07-18T06:49:33;100218.02;;;18.27;56.55
58662;BME280;44432;49.786;22.760;2022-07-18T06:52:04;100212.93;;;18.33;55.90
58662;BME280;44432;49.786;22.760;2022-07-18T06:54:34;100214.11;;;18.39;56.17
58662;BME280;44432;49.786;22.760;2022-07-18T06:57:07;100210.06;;;18.48;56.15
58662;BME280;44432;49.786;22.760;2022-07-18T06:59:38;100202.66;;;18.59;55.98
58662;BME280;44432;49.786;22.760;2022-07-18T07:02:09;100205.35;;;18.74;55.70
58662;BME280;44432;49.786;22.760;2022-07-18T07:04:40;100198.27;;;18.80;55.48
58662;BME280;44432;49.786;22.760;2022-07-18T07:07:10;100204.66;;;18.91;55.04
58662;BME280;44432;49.786;22.760;2022-07-18T07:09:41;100202.79;;;18.99;54.61
58662;BME280;44432;49.786;22.760;2022-07-18T07:12:11;100199.02;;;19.09;54.38
58662;BME280;44432;49.786;22.760;2022-07-18T07:14:42;100201.94;;;19.17;54.27
58662;BME280;44432;49.786;22.760;2022-07-18T07:17:12;100199.25;;;19.24;53.63
58662;BME280;44432;49.786;22.760;2022-07-18T07:19:43;100196.45;;;19.31;53.43
58662;BME280;44432;49.786;22.760;2022-07-18T07:22:14;100198.95;;;19.42;52.82
58662;BME280;44432;49.786;22.760;2022-07-18T07:24:44;100193.73;;;19.48;52.16
58662;BME280;44432;49.786;22.760;2022-07-18T07:27:15;100192.06;;;19.54;51.96
58662;BME280;44432;49.786;22.760;2022-07-18T07:29:45;100193.78;;;19.62;51.65
58662;BME280;44432;49.786;22.760;2022-07-18T07:32:16;100192.57;;;19.73;51.49
58662;BME280;44432;49.786;22.760;2022-07-18T07:34:46;100184.34;;;19.81;50.43
58662;BME280;44432;49.786;22.760;2022-07-18T07:37:17;100184.18;;;19.86;50.11
58662;BME280;44432;49.786;22.760;2022-07-18T07:39:47;100185.30;;;19.96;49.35
58662;BME280;44432;49.786;22.760;2022-07-18T07:42:19;100180.14;;;20.05;48.78
58662;BME280;44432;49.786;22.760;2022-07-18T07:44:49;100178.05;;;20.10;48.13
58662;BME280;44432;49.786;22.760;2022-07-18T07:47:20;100178.15;;;20.14;47.70
58662;BME280;44432;49.786;22.760;2022-07-18T07:49:51;100170.52;;;20.19;47.74
58662;BME280;44432;49.786;22.760;2022-07-18T07:52:21;100168.08;;;20.27;46.91
58662;BME280;44432;49.786;22.760;2022-07-18T07:54:53;100171.75;;;20.35;47.17
58662;BME280;44432;49.786;22.760;2022-07-18T07:57:23;100170.25;;;20.44;46.47
58662;BME280;44432;49.786;22.760;2022-07-18T07:59:55;100168.64;;;20.50;46.14
58662;BME280;44432;49.786;22.760;2022-07-18T08:02:25;100168.02;;;20.60;46.23
58662;BME280;44432;49.786;22.760;2022-07-18T08:04:56;100173.19;;;20.69;45.35
58662;BME280;44432;49.786;22.760;2022-07-18T08:07:26;100169.36;;;20.74;45.07
58662;BME280;44432;49.786;22.760;2022-07-18T08:09:57;100167.89;;;20.78;44.55
58662;BME280;44432;49.786;22.760;2022-07-18T08:12:28;100166.55;;;20.82;44.35
58662;BME280;44432;49.786;22.760;2022-07-18T08:14:58;100165.80;;;20.91;44.08
58662;BME280;44432;49.786;22.760;2022-07-18T08:17:29;100168.27;;;20.99;43.63
58662;BME280;44432;49.786;22.760;2022-07-18T08:19:59;100174.75;;;21.05;42.71
58662;BME280;44432;49.786;22.760;2022-07-18T08:22:30;100171.75;;;21.08;42.40
58662;BME280;44432;49.786;22.760;2022-07-18T08:25:01;100170.88;;;21.14;42.24
58662;BME280;44432;49.786;22.760;2022-07-18T08:27:31;100171.77;;;21.18;41.78
58662;BME280;44432;49.786;22.760;2022-07-18T08:30:02;100173.55;;;21.25;41.99
58662;BME280;44432;49.786;22.760;2022-07-18T08:32:34;100173.52;;;21.30;41.55
58662;BME280;44432;49.786;22.760;2022-07-18T08:35:07;100176.39;;;21.34;40.97
58662;BME280;44432;49.786;22.760;2022-07-18T08:37:37;100170.92;;;21.38;41.19
58662;BME280;44432;49.786;22.760;2022-07-18T08:40:09;100169.81;;;21.40;40.78
58662;BME280;44432;49.786;22.760;2022-07-18T08:42:41;100166.61;;;21.46;41.29
58662;BME280;44432;49.786;22.760;2022-07-18T08:45:12;100167.46;;;21.56;41.17
58662;BME280;44432;49.786;22.760;2022-07-18T08:47:45;100167.92;;;21.66;40.65
58662;BME280;44432;49.786;22.760;2022-07-18T08:50:16;100163.48;;;21.74;40.10
58662;BME280;44432;49.786;22.760;2022-07-18T08:52:47;100155.66;;;21.81;40.26
58662;BME280;44432;49.786;22.760;2022-07-18T08:55:17;100159.64;;;21.92;40.10
58662;BME280;44432;49.786;22.760;2022-07-18T08:57:48;100155.69;;;21.99;40.08
58662;BME280;44432;49.786;22.760;2022-07-18T09:00:18;100155.13;;;22.08;39.57
58662;BME280;44432;49.786;22.760;2022-07-18T09:02:59;100151.76;;;22.14;39.61
58662;BME280;44432;49.786;22.760;2022-07-18T09:05:31;100153.33;;;22.25;39.43
58662;BME280;44432;49.786;22.760;2022-07-18T09:08:13;100149.56;;;22.36;38.69
58662;BME280;44432;49.786;22.760;2022-07-18T09:10:51;100155.39;;;22.44;38.79
58662;BME280;44432;49.786;22.760;2022-07-18T09:13:25;100148.70;;;22.49;38.52
58662;BME280;44432;49.786;22.760;2022-07-18T09:16:01;100144.40;;;22.53;38.37
58662;BME280;44432;49.786;22.760;2022-07-18T09:18:34;100143.33;;;22.59;38.41
58662;BME280;44432;49.786;22.760;2022-07-18T09:21:07;100145.19;;;22.71;38.58
58662;BME280;44432;49.786;22.760;2022-07-18T09:23:38;100144.06;;;22.84;38.40
58662;BME280;44432;49.786;22.760;2022-07-18T09:26:10;100141.13;;;22.91;37.66
58662;BME280;44432;49.786;22.760;2022-07-18T09:28:51;100144.72;;;22.96;37.34
58662;BME280;44432;49.786;22.760;2022-07-18T09:31:23;100143.82;;;22.91;37.82
58662;BME280;44432;49.786;22.760;2022-07-18T09:33:54;100149.67;;;22.96;37.89
58662;BME280;44432;49.786;22.760;2022-07-18T09:36:26;100145.20;;;22.99;37.37
58662;BME280;44432;49.786;22.760;2022-07-18T09:38:57;100140.18;;;23.02;37.76
58662;BME280;44432;49.786;22.760;2022-07-18T09:41:29;100139.52;;;23.11;37.64
58662;BME280;44432;49.786;22.760;2022-07-18T09:44:15;100141.61;;;23.13;37.35
58662;BME280;44432;49.786;22.760;2022-07-18T09:49:43;100134.14;;;23.04;36.73
58662;BME280;44432;49.786;22.760;2022-07-18T09:52:14;100134.75;;;23.01;36.78
58662;BME280;44432;49.786;22.760;2022-07-18T09:54:45;100130.64;;;23.01;36.45
58662;BME280;44432;49.786;22.760;2022-07-18T09:57:26;100131.35;;;23.03;36.10
58662;BME280;44432;49.786;22.760;2022-07-18T09:59:57;100137.60;;;23.02;35.82
58662;BME280;44432;49.786;22.760;2022-07-18T10:02:28;100131.35;;;23.00;35.52
58662;BME280;44432;49.786;22.760;2022-07-18T10:04:59;100137.38;;;23.02;35.81
58662;BME280;44432;49.786;22.760;2022-07-18T10:07:29;100131.54;;;23.10;35.70
58662;BME280;44432;49.786;22.760;2022-07-18T10:10:00;100134.80;;;23.19;35.59
58662;BME280;44432;49.786;22.760;2022-07-18T10:12:32;100140.80;;;23.29;35.25
58662;BME280;44432;49.786;22.760;2022-07-18T10:15:03;100132.00;;;23.31;35.01
58662;BME280;44432;49.786;22.760;2022-07-18T10:17:34;100129.21;;;23.29;34.66
58662;BME280;44432;49.786;22.760;2022-07-18T10:20:07;100131.42;;;23.27;34.61
58662;BME280;44432;49.786;22.760;2022-07-18T10:22:40;100130.73;;;23.27;34.44
58662;BME280;44432;49.786;22.760;2022-07-18T10:25:13;100128.80;;;23.24;33.63
58662;BME280;44432;49.786;22.760;2022-07-18T10:27:52;100124.69;;;23.13;33.99
58662;BME280;44432;49.786;22.760;2022-07-18T10:30:37;100126.48;;;23.13;34.05
58662;BME280;44432;49.786;22.760;2022-07-18T10:33:38;100125.98;;;23.16;34.42
58662;BME280;44432;49.786;22.760;2022-07-18T10:36:11;100124.42;;;23.26;34.66
58662;BME280;44432;49.786;22.760;2022-07-18T10:39:07;100118.70;;;23.29;34.10
58662;BME280;44432;49.786;22.760;2022-07-18T10:44:37;100123.61;;;23.40;34.62
58662;BME280;44432;49.786;22.760;2022-07-18T10:47:10;100120.94;;;23.50;34.73
58662;BME280;44432;49.786;22.760;2022-07-18T10:50:05;100116.85;;;23.64;34.50
58662;BME280;44432;49.786;22.760;2022-07-18T10:52:57;100109.30;;;23.72;34.36
58662;BME280;44432;49.786;22.760;2022-07-18T10:55:31;100109.38;;;23.79;34.27
58662;BME280;44432;49.786;22.760;2022-07-18T10:58:19;100109.41;;;23.82;34.45
58662;BME280;44432;49.786;22.760;2022-07-18T11:00:58;100109.59;;;23.92;34.33
58662;BME280;44432;49.786;22.760;2022-07-18T11:03:30;100100.05;;;24.06;34.61
58662;BME280;44432;49.786;22.760;2022-07-18T11:06:01;100094.91;;;24.19;34.11
58662;BME280;44432;49.786;22.760;2022-07-18T11:08:32;100088.14;;;24.20;33.84
58662;BME280;44432;49.786;22.760;2022-07-18T11:11:20;100091.39;;;24.23;34.17
58662;BME280;44432;49.786;22.760;2022-07-18T11:13:50;100088.05;;;24.25;33.96
58662;BME280;44432;49.786;22.760;2022-07-18T11:16:23;100088.36;;;24.24;34.07
58662;BME280;44432;49.786;22.760;2022-07-18T11:21:40;100082.63;;;24.28;33.96
58662;BME280;44432;49.786;22.760;2022-07-18T11:24:12;100083.81;;;24.40;33.97
58662;BME280;44432;49.786;22.760;2022-07-18T11:26:47;100085.45;;;24.56;34.06
58662;BME280;44432;49.786;22.760;2022-07-18T11:29:19;100078.03;;;24.68;33.52
58662;BME280;44432;49.786;22.760;2022-07-18T11:31:52;100078.23;;;24.65;33.22
58662;BME280;44432;49.786;22.760;2022-07-18T11:34:24;100071.73;;;24.57;33.57
58662;BME280;44432;49.786;22.760;2022-07-18T11:36:55;100070.02;;;24.61;34.00
58662;BME280;44432;49.786;22.760;2022-07-18T11:39:33;100070.81;;;24.77;34.08
58662;BME280;44432;49.786;22.760;2022-07-18T11:42:04;100071.41;;;24.87;33.62
58662;BME280;44432;49.786;22.760;2022-07-18T11:44:35;100067.14;;;24.88;33.16
58662;BME280;44432;49.786;22.760;2022-07-18T11:47:08;100063.45;;;24.93;33.42
58662;BME280;44432;49.786;22.760;2022-07-18T11:49:40;100057.85;;;25.10;33.63
58662;BME280;44432;49.786;22.760;2022-07-18T11:52:23;100061.33;;;25.21;33.40
58662;BME280;44432;49.786;22.760;2022-07-18T11:54:54;100060.89;;;25.21;33.16
58662;BME280;44432;49.786;22.760;2022-07-18T11:57:32;100060.18;;;25.26;32.96
58662;BME280;44432;49.786;22.760;2022-07-18T12:00:16;100059.70;;;25.29;33.12
58662;BME280;44432;49.786;22.760;2022-07-18T12:03:04;100058.74;;;25.20;32.58
58662;BME280;44432;49.786;22.760;2022-07-18T12:05:37;100060.88;;;24.91;32.34
58662;BME280;44432;49.786;22.760;2022-07-18T12:08:25;100058.29;;;24.86;33.15
58662;BME280;44432;49.786;22.760;2022-07-18T12:11:11;100058.66;;;24.91;33.12
58662;BME280;44432;49.786;22.760;2022-07-18T12:13:53;100047.44;;;24.95;33.03
58662;BME280;44432;49.786;22.760;2022-07-18T12:16:29;100050.63;;;25.03;33.14
58662;BME280;44432;49.786;22.760;2022-07-18T12:19:02;100054.98;;;25.04;32.82
58662;BME280;44432;49.786;22.760;2022-07-18T12:21:50;100052.91;;;25.02;32.79
58662;BME280;44432;49.786;22.760;2022-07-18T12:24:24;100048.25;;;25.03;32.51
58662;BME280;44432;49.786;22.760;2022-07-18T12:27:25;100049.98;;;25.02;32.39
58662;BME280;44432;49.786;22.760;2022-07-18T12:30:01;100052.59;;;24.88;32.39
58662;BME280;44432;49.786;22.760;2022-07-18T12:32:41;100047.65;;;24.81;32.32
58662;BME280;44432;49.786;22.760;2022-07-18T12:35:14;100045.47;;;24.87;32.67
58662;BME280;44432;49.786;22.760;2022-07-18T12:37:54;100040.74;;;24.90;32.36
58662;BME280;44432;49.786;22.760;2022-07-18T12:40:26;100042.08;;;24.96;32.70
58662;BME280;44432;49.786;22.760;2022-07-18T12:43:05;100040.57;;;25.08;32.79
58662;BME280;44432;49.786;22.760;2022-07-18T12:45:37;100039.66;;;25.20;32.90
58662;BME280;44432;49.786;22.760;2022-07-18T12:48:10;100038.16;;;25.23;32.44
58662;BME280;44432;49.786;22.760;2022-07-18T12:50:42;100033.27;;;25.18;32.44
58662;BME280;44432;49.786;22.760;2022-07-18T12:53:14;100031.54;;;25.26;32.77
58662;BME280;44432;49.786;22.760;2022-07-18T12:55:45;100029.70;;;25.45;32.61
58662;BME280;44432;49.786;22.760;2022-07-18T12:58:15;100025.67;;;25.58;32.67
58662;BME280;44432;49.786;22.760;2022-07-18T13:00:47;100024.33;;;25.66;32.10
58662;BME280;44432;49.786;22.760;2022-07-18T13:03:18;100029.81;;;25.75;32.33
58662;BME280;44432;49.786;22.760;2022-07-18T13:05:49;100026.89;;;25.83;31.56
58662;BME280;44432;49.786;22.760;2022-07-18T13:08:19;100027.05;;;25.68;30.97
58662;BME280;44432;49.786;22.760;2022-07-18T13:10:51;100024.55;;;25.50;31.76
58662;BME280;44432;49.786;22.760;2022-07-18T13:13:22;100024.23;;;25.42;31.95
58662;BME280;44432;49.786;22.760;2022-07-18T13:15:53;100022.70;;;25.31;32.09